createdAt,value
2023-03-21T00:01:53.973Z,11.18
2023-03-21T00:04:28.395Z,12.35
2023-03-21T00:06:57.214Z,11.48
2023-03-21T00:09:24.834Z,12.45
2023-03-21T00:11:52.314Z,11.43
2023-03-21T00:14:20.580Z,11.10
2023-03-21T00:16:52.660Z,11.95
2023-03-21T00:19:21.867Z,13.23
2023-03-21T00:22:06.485Z,11.75
2023-03-21T00:24:36.466Z,11.85
2023-03-21T00:27:26.861Z,13.27
2023-03-21T00:29:54.578Z,11.77
2023-03-21T00:32:24.992Z,13.13
2023-03-21T00:35:11.824Z,12.48
2023-03-21T00:37:39.806Z,13.63
2023-03-21T00:40:23.022Z,14.52
2023-03-21T00:42:52.906Z,13.05
2023-03-21T00:45:22.426Z,13.15
2023-03-21T00:47:50.032Z,13.82
2023-03-21T00:50:18.399Z,12.98
2023-03-21T00:52:45.951Z,15.23
2023-03-21T00:55:18.745Z,14.52
2023-03-21T00:57:50.143Z,12.82
2023-03-21T01:00:23.750Z,14.80
2023-03-21T01:03:14.186Z,13.57
2023-03-21T01:06:06.277Z,13.05
2023-03-21T01:08:51.106Z,13.32
2023-03-21T01:13:54.612Z,13.20
2023-03-21T01:16:25.815Z,14.20
2023-03-21T01:18:53.930Z,12.25
2023-03-21T01:21:21.402Z,13.52
2023-03-21T01:23:49.028Z,12.95
2023-03-21T01:26:16.867Z,14.30
2023-03-21T01:28:44.608Z,15.15
2023-03-21T01:31:14.278Z,14.82
2023-03-21T01:33:41.731Z,15.98
2023-03-21T01:36:14.683Z,15.10
2023-03-21T01:38:43.641Z,15.48
2023-03-21T01:41:45.675Z,16.42
2023-03-21T01:44:19.134Z,16.30
2023-03-21T01:49:46.503Z,16.15
2023-03-21T01:52:35.877Z,16.80
2023-03-21T01:55:08.837Z,17.30
2023-03-21T01:57:55.201Z,17.73
2023-03-21T02:00:32.830Z,16.48
2023-03-21T02:03:13.819Z,16.73
2023-03-21T02:06:01.071Z,15.35
2023-03-21T02:08:39.185Z,18.77
2023-03-21T02:11:10.224Z,17.02
2023-03-21T02:13:38.426Z,18.35
2023-03-21T02:16:42.935Z,20.05
2023-03-21T02:19:35.659Z,18.98
2023-03-21T02:22:45.147Z,18.73
2023-03-21T02:25:24.370Z,19.67
2023-03-21T02:28:05.454Z,19.30
2023-03-21T02:30:56.855Z,16.67
2023-03-21T02:33:42.767Z,17.25
2023-03-21T02:38:58.528Z,17.80
2023-03-21T02:41:43.599Z,19.40
2023-03-21T02:44:37.623Z,18.85
2023-03-21T02:47:28.967Z,18.90
2023-03-21T02:49:58.715Z,19.52
2023-03-21T02:52:39.118Z,19.90
2023-03-21T02:55:15.797Z,19.60
2023-03-21T02:57:46.566Z,20.55
2023-03-21T03:00:19.248Z,19.88
2023-03-21T03:02:48.857Z,21.02
2023-03-21T03:05:23.813Z,21.40
2023-03-21T03:08:04.037Z,20.13
2023-03-21T03:10:49.282Z,20.83
2023-03-21T03:13:33.298Z,21.08
2023-03-21T03:16:37.037Z,21.23
2023-03-21T03:19:09.180Z,21.38
2023-03-21T03:22:07.161Z,21.33
2023-03-21T03:24:48.073Z,21.90
2023-03-21T03:27:22.770Z,20.42
2023-03-21T03:29:51.462Z,22.13
2023-03-21T03:32:20.646Z,21.73
2023-03-21T03:34:56.550Z,21.20
2023-03-21T03:37:30.099Z,21.65
2023-03-21T03:40:12.108Z,21.88
2023-03-21T03:42:43.585Z,19.63
2023-03-21T03:45:11.439Z,21.77
2023-03-21T03:47:59.081Z,20.33
2023-03-21T03:50:31.730Z,19.75
2023-03-21T03:53:18.833Z,20.20
2023-03-21T03:55:48.062Z,23.08
2023-03-21T03:58:23.765Z,21.15
2023-03-21T04:00:53.937Z,19.98
2023-03-21T04:03:21.871Z,21.98
2023-03-21T04:05:49.328Z,23.38
2023-03-21T04:08:17.586Z,22.17
2023-03-21T04:10:45.455Z,21.80
2023-03-21T04:13:12.749Z,23.08
2023-03-21T04:15:40.190Z,22.80
2023-03-21T04:18:07.656Z,21.20
2023-03-21T04:20:37.171Z,22.38
2023-03-21T04:23:06.376Z,20.58
2023-03-21T04:25:44.622Z,22.27
2023-03-21T04:28:17.929Z,21.63
2023-03-21T04:31:00.376Z,21.65
2023-03-21T04:33:29.357Z,20.83
2023-03-21T04:35:57.224Z,22.88
2023-03-21T04:38:31.068Z,21.40
2023-03-21T04:40:59.164Z,21.77
2023-03-21T04:43:26.351Z,20.60
2023-03-21T04:45:53.743Z,21.92
2023-03-21T04:48:24.830Z,21.63
2023-03-21T04:50:52.891Z,21.55
2023-03-21T04:53:20.336Z,23.05
2023-03-21T04:55:48.170Z,22.75
2023-03-21T04:58:16.500Z,22.73
2023-03-21T05:00:43.874Z,22.63
2023-03-21T05:03:11.218Z,22.95
2023-03-21T05:05:39.041Z,22.15
2023-03-21T05:08:06.866Z,21.60
2023-03-21T05:10:34.481Z,22.23
2023-03-21T05:13:01.810Z,22.23
2023-03-21T05:15:29.229Z,21.63
2023-03-21T05:17:58.998Z,25.38
2023-03-21T05:20:26.785Z,23.10
2023-03-21T05:22:54.363Z,21.13
2023-03-21T05:25:35.701Z,21.83
2023-03-21T05:28:03.034Z,23.08
2023-03-21T05:30:30.352Z,23.00
2023-03-21T05:32:58.135Z,22.88
2023-03-21T05:35:26.874Z,22.00
2023-03-21T05:37:54.578Z,23.17
2023-03-21T05:40:21.930Z,22.30
2023-03-21T05:42:49.747Z,23.67
2023-03-21T05:45:17.431Z,23.88
2023-03-21T05:47:44.879Z,24.75
2023-03-21T05:50:13.690Z,22.63
2023-03-21T05:52:41.288Z,25.63
2023-03-21T05:55:09.133Z,24.15
2023-03-21T05:57:39.423Z,22.27
2023-03-21T06:00:08.832Z,22.30
2023-03-21T06:02:36.022Z,24.92
2023-03-21T06:05:03.487Z,26.23
2023-03-21T06:07:30.870Z,24.63
2023-03-21T06:09:58.210Z,25.02
2023-03-21T06:12:25.570Z,23.52
2023-03-21T06:14:52.911Z,25.77
2023-03-21T06:17:20.400Z,23.33
2023-03-21T06:19:47.609Z,25.60
2023-03-21T06:22:14.994Z,24.77
2023-03-21T06:24:42.582Z,24.98
2023-03-21T06:27:10.204Z,21.65
2023-03-21T06:29:37.508Z,23.38
2023-03-21T06:32:05.093Z,24.30
2023-03-21T06:34:32.737Z,22.77
2023-03-21T06:37:00.063Z,22.23
2023-03-21T06:39:27.356Z,23.38
2023-03-21T06:41:54.506Z,23.92
2023-03-21T06:44:22.496Z,24.48
2023-03-21T06:46:49.735Z,24.83
2023-03-21T06:49:17.526Z,27.95
2023-03-21T06:51:44.848Z,25.30
2023-03-21T06:54:12.464Z,26.88
2023-03-21T06:56:39.764Z,27.02
2023-03-21T06:59:07.099Z,29.52
2023-03-21T07:01:34.905Z,24.95
2023-03-21T07:04:02.581Z,27.40
2023-03-21T07:06:30.617Z,26.25
2023-03-21T07:08:58.391Z,26.92
2023-03-21T07:11:26.374Z,29.83
2023-03-21T07:13:53.691Z,27.98
2023-03-21T07:16:21.983Z,25.90
2023-03-21T07:18:49.733Z,27.02
2023-03-21T07:21:20.440Z,25.83
2023-03-21T07:23:48.058Z,26.98
2023-03-21T07:26:16.546Z,27.27
2023-03-21T07:28:43.902Z,26.23
2023-03-21T07:31:16.697Z,24.55
2023-03-21T07:33:44.394Z,26.75
2023-03-21T07:36:15.614Z,26.20
2023-03-21T07:38:44.834Z,25.10
2023-03-21T07:41:13.458Z,26.38
2023-03-21T07:43:40.936Z,26.30
2023-03-21T07:46:08.478Z,26.50
2023-03-21T07:48:35.820Z,27.00
2023-03-21T07:51:03.195Z,26.02
2023-03-21T07:53:30.458Z,25.63
2023-03-21T07:55:57.945Z,26.00
2023-03-21T07:58:26.922Z,27.08
2023-03-21T08:00:56.837Z,24.58
2023-03-21T08:03:24.408Z,25.40
2023-03-21T08:05:51.775Z,25.50
2023-03-21T08:08:19.076Z,24.30
2023-03-21T08:10:46.731Z,24.60
2023-03-21T08:13:14.207Z,26.00
2023-03-21T08:15:42.678Z,26.58
2023-03-21T08:18:10.850Z,25.15
2023-03-21T08:20:38.650Z,23.52
2023-03-21T08:23:06.155Z,24.25
2023-03-21T08:25:33.628Z,24.17
2023-03-21T08:28:01.128Z,24.88
2023-03-21T08:30:29.745Z,24.50
2023-03-21T08:33:01.192Z,23.52
2023-03-21T08:35:29.854Z,24.02
2023-03-21T08:37:57.712Z,23.52
2023-03-21T08:40:25.202Z,25.48
2023-03-21T08:42:52.692Z,24.55
2023-03-21T08:45:20.527Z,24.05
2023-03-21T08:47:48.105Z,25.20
2023-03-21T08:50:21.586Z,24.83
2023-03-21T08:52:49.901Z,25.02
2023-03-21T08:55:19.017Z,26.42
2023-03-21T08:57:46.846Z,25.95
2023-03-21T09:00:18.091Z,28.08
2023-03-21T09:02:47.237Z,24.63
2023-03-21T09:05:18.844Z,25.05
2023-03-21T09:07:46.693Z,23.58
2023-03-21T09:10:21.587Z,28.33
2023-03-21T09:12:52.119Z,25.52
2023-03-21T09:15:22.199Z,25.92
2023-03-21T09:17:55.139Z,23.98
2023-03-21T09:20:31.563Z,26.50
2023-03-21T09:22:59.992Z,25.25
2023-03-21T09:25:31.810Z,25.60
2023-03-21T09:28:00.950Z,26.10
2023-03-21T09:30:28.954Z,26.27
2023-03-21T09:32:56.530Z,25.05
2023-03-21T09:35:25.080Z,26.83
2023-03-21T09:37:52.780Z,25.52
2023-03-21T09:40:27.765Z,25.02
2023-03-21T09:43:29.116Z,25.77
2023-03-21T09:46:09.572Z,25.20
2023-03-21T09:48:57.545Z,24.98
2023-03-21T09:51:33.882Z,24.58
2023-03-21T09:54:07.736Z,27.60
2023-03-21T09:56:38.034Z,23.77
2023-03-21T09:59:09.276Z,22.92
2023-03-21T10:01:42.408Z,21.23
2023-03-21T10:04:16.962Z,22.85
2023-03-21T10:06:46.107Z,21.67
2023-03-21T10:09:24.807Z,22.98
2023-03-21T10:12:08.762Z,23.10
2023-03-21T10:14:40.220Z,21.33
2023-03-21T10:17:28.969Z,20.38
2023-03-21T10:20:15.258Z,23.73
2023-03-21T10:22:44.578Z,18.67
2023-03-21T10:25:19.514Z,18.80
2023-03-21T10:27:48.635Z,20.55
2023-03-21T10:30:30.572Z,17.42
2023-03-21T10:33:05.437Z,17.20
2023-03-21T10:35:37.505Z,19.25
2023-03-21T10:38:07.008Z,16.33
2023-03-21T10:40:35.509Z,17.70
2023-03-21T10:43:30.564Z,16.08
2023-03-21T10:45:58.623Z,17.48
2023-03-21T10:48:26.384Z,16.95
2023-03-21T10:50:55.662Z,16.98
2023-03-21T10:53:40.594Z,17.60
2023-03-21T10:56:12.930Z,17.37
2023-03-21T10:58:45.783Z,17.13
2023-03-21T11:01:22.355Z,16.85
2023-03-21T11:03:49.934Z,18.17
2023-03-21T11:06:27.479Z,18.63
2023-03-21T11:08:58.228Z,17.95
2023-03-21T11:11:28.395Z,15.32
2023-03-21T11:14:02.013Z,18.52
2023-03-21T11:16:41.167Z,17.50
2023-03-21T11:19:16.042Z,17.17
2023-03-21T11:21:43.746Z,16.52
2023-03-21T11:24:17.799Z,16.13
2023-03-21T11:26:48.602Z,17.73
2023-03-21T11:29:27.937Z,15.18
2023-03-21T11:32:02.885Z,15.80
2023-03-21T11:34:50.591Z,15.70
2023-03-21T11:37:40.176Z,15.65
2023-03-21T11:40:22.408Z,14.05
2023-03-21T11:43:05.034Z,14.88
2023-03-21T11:45:39.115Z,14.73
2023-03-21T11:48:15.461Z,12.98
2023-03-21T11:50:47.714Z,14.52
2023-03-21T11:53:29.021Z,13.43
2023-03-21T11:56:07.731Z,15.23
2023-03-21T11:58:45.163Z,14.52
2023-03-21T12:01:19.595Z,13.73
2023-03-21T12:04:07.479Z,14.18
2023-03-21T12:06:50.255Z,13.80
2023-03-21T12:09:23.381Z,11.70
2023-03-21T12:12:09.254Z,13.00
2023-03-21T12:14:51.843Z,12.27
2023-03-21T12:17:52.070Z,13.40
2023-03-21T12:20:46.945Z,11.57
2023-03-21T12:23:46.896Z,12.23
2023-03-21T12:26:30.664Z,13.88
2023-03-21T12:29:30.418Z,12.57
2023-03-21T12:32:26.287Z,13.75
2023-03-21T12:35:12.500Z,12.35
2023-03-21T12:37:57.999Z,11.65
2023-03-21T12:40:44.063Z,12.85
2023-03-21T12:43:44.791Z,15.02
2023-03-21T12:46:17.248Z,12.75
2023-03-21T12:48:59.093Z,11.43
2023-03-21T12:51:33.073Z,10.98
2023-03-21T12:54:18.095Z,11.38
2023-03-21T12:56:55.991Z,13.18
2023-03-21T12:59:34.978Z,14.07
2023-03-21T13:02:15.961Z,12.45
2023-03-21T13:04:46.961Z,12.15
2023-03-21T13:07:18.424Z,12.68
2023-03-21T13:09:47.067Z,10.50
2023-03-21T13:12:41.893Z,12.40
2023-03-21T13:15:27.935Z,9.55
2023-03-21T13:18:27.354Z,10.50
2023-03-21T13:21:01.165Z,12.48
2023-03-21T13:23:37.276Z,10.45
2023-03-21T13:26:11.484Z,10.95
2023-03-21T13:28:41.674Z,11.43
2023-03-21T13:31:51.357Z,11.00
2023-03-21T13:34:23.057Z,11.77
2023-03-21T13:36:52.423Z,10.95
2023-03-21T13:39:30.045Z,12.10
2023-03-21T13:42:04.770Z,10.68
2023-03-21T13:44:50.015Z,9.75
2023-03-21T13:47:28.518Z,9.95
2023-03-21T13:50:14.648Z,10.40
2023-03-21T13:52:42.093Z,9.73
2023-03-21T13:55:19.982Z,9.85
2023-03-21T13:57:48.085Z,10.00
2023-03-21T14:00:19.983Z,10.75
2023-03-21T14:02:57.592Z,10.15
2023-03-21T14:05:27.806Z,9.57
2023-03-21T14:08:15.242Z,9.60
2023-03-21T14:10:49.269Z,9.93
2023-03-21T14:13:20.342Z,12.02
2023-03-21T14:15:58.292Z,10.85
2023-03-21T14:18:51.782Z,8.68
2023-03-21T14:21:23.677Z,9.18
2023-03-21T14:24:18.711Z,10.57
2023-03-21T14:26:52.126Z,10.45
2023-03-21T14:29:39.889Z,10.68
2023-03-21T14:32:10.061Z,12.32
2023-03-21T14:34:37.980Z,11.43
2023-03-21T14:37:08.181Z,10.82
2023-03-21T14:39:35.652Z,10.40
2023-03-21T14:42:08.367Z,10.20
2023-03-21T14:44:53.958Z,12.82
2023-03-21T14:47:32.267Z,10.65
2023-03-21T14:50:01.806Z,11.07
2023-03-21T14:52:34.528Z,11.70
2023-03-21T14:55:06.269Z,11.20
2023-03-21T14:57:34.123Z,11.52
2023-03-21T15:00:13.036Z,11.27
2023-03-21T15:02:42.329Z,10.95
2023-03-21T15:05:21.125Z,11.05
2023-03-21T15:08:01.459Z,12.70
2023-03-21T15:10:31.427Z,12.02
2023-03-21T15:13:01.919Z,11.15
2023-03-21T15:15:31.912Z,10.50
2023-03-21T15:18:04.664Z,10.50
2023-03-21T15:20:36.125Z,10.45
2023-03-21T15:23:27.867Z,11.85
2023-03-21T15:25:55.602Z,11.05
2023-03-21T15:28:23.111Z,11.00
2023-03-21T15:30:52.704Z,10.25
2023-03-21T15:33:21.122Z,11.35
2023-03-21T15:35:55.885Z,10.73
2023-03-21T15:38:40.678Z,10.32
2023-03-21T15:41:17.514Z,13.07
2023-03-21T15:43:45.132Z,10.05
2023-03-21T15:46:49.094Z,11.00
2023-03-21T15:49:16.663Z,10.27
2023-03-21T15:51:52.593Z,11.02
2023-03-21T15:54:57.108Z,11.05
2023-03-21T15:57:26.274Z,11.55
2023-03-21T16:00:29.525Z,10.57
2023-03-21T16:03:01.375Z,12.35
2023-03-21T16:05:36.527Z,11.80
2023-03-21T16:08:20.237Z,10.70
2023-03-21T16:10:49.296Z,10.80
2023-03-21T16:13:17.915Z,11.07
2023-03-21T16:15:51.258Z,10.02
2023-03-21T16:18:19.344Z,11.02
2023-03-21T16:20:47.430Z,9.23
2023-03-21T16:23:16.221Z,7.63
2023-03-21T16:25:44.671Z,9.02
2023-03-21T16:28:16.932Z,7.72
2023-03-21T16:30:44.543Z,9.88
2023-03-21T16:33:13.106Z,7.35
2023-03-21T16:35:40.740Z,6.28
2023-03-21T16:38:08.053Z,9.30
2023-03-21T16:40:38.788Z,8.80
2023-03-21T16:43:07.210Z,5.47
2023-03-21T16:45:35.065Z,6.53
2023-03-21T16:48:02.956Z,5.93
2023-03-21T16:50:35.439Z,6.55
2023-03-21T16:53:03.598Z,6.57
2023-03-21T16:55:33.940Z,6.78
2023-03-21T16:58:02.283Z,6.18
2023-03-21T17:00:31.332Z,6.38
2023-03-21T17:03:02.669Z,7.05
2023-03-21T17:05:33.040Z,4.85
2023-03-21T17:08:02.711Z,5.30
2023-03-21T17:10:32.484Z,5.55
2023-03-21T17:13:02.818Z,6.00
2023-03-21T17:15:30.466Z,5.72
2023-03-21T17:17:57.846Z,6.15
2023-03-21T17:20:29.529Z,6.05
2023-03-21T17:22:56.856Z,7.50
2023-03-21T17:25:25.046Z,6.50
2023-03-21T17:27:55.033Z,6.60
2023-03-21T17:30:32.373Z,6.00
2023-03-21T17:33:00.194Z,6.63
2023-03-21T17:35:28.519Z,6.55
2023-03-21T17:37:58.699Z,7.45
2023-03-21T17:40:29.457Z,6.82
2023-03-21T17:42:58.236Z,6.90
2023-03-21T17:45:28.183Z,7.65
2023-03-21T17:47:55.856Z,7.28
2023-03-21T17:50:26.229Z,6.32
2023-03-21T17:52:56.630Z,6.72
2023-03-21T17:55:24.504Z,7.60
2023-03-21T17:57:52.773Z,6.75
2023-03-21T18:00:25.473Z,7.03
2023-03-21T18:02:53.722Z,7.25
2023-03-21T18:05:21.930Z,6.65
2023-03-21T18:08:09.738Z,7.88
2023-03-21T18:10:38.707Z,6.55
2023-03-21T18:13:06.183Z,6.78
2023-03-21T18:15:33.662Z,6.32
2023-03-21T18:18:01.275Z,8.00
2023-03-21T18:20:49.761Z,7.57
2023-03-21T18:23:16.307Z,6.78
2023-03-21T18:25:43.734Z,6.50
2023-03-21T18:28:14.157Z,9.48
2023-03-21T18:33:30.446Z,9.88
2023-03-21T18:35:59.886Z,10.07
2023-03-21T18:38:31.027Z,8.73
2023-03-21T18:40:58.401Z,7.78
2023-03-21T18:46:16.754Z,9.02
2023-03-21T18:48:44.596Z,7.97
2023-03-21T18:51:12.615Z,10.32
2023-03-21T18:53:39.938Z,9.20
2023-03-21T18:56:10.105Z,9.23
2023-03-21T18:58:38.037Z,9.98
2023-03-21T19:01:05.727Z,10.25
2023-03-21T19:03:37.075Z,11.25
2023-03-21T19:06:05.750Z,11.80
2023-03-21T19:08:34.963Z,11.75
2023-03-21T19:11:05.961Z,12.45
2023-03-21T19:13:34.396Z,11.35
2023-03-21T19:16:03.115Z,12.30
2023-03-21T19:18:53.344Z,12.02
2023-03-21T19:21:22.182Z,12.88
2023-03-21T19:24:22.927Z,12.85
2023-03-21T19:26:37.409Z,12.32
2023-03-21T19:29:04.848Z,14.18
2023-03-21T19:31:32.319Z,13.00
2023-03-21T19:33:59.558Z,12.80
2023-03-21T19:36:27.209Z,13.77
2023-03-21T19:38:55.005Z,14.35
2023-03-21T19:41:22.467Z,15.40
2023-03-21T19:43:55.198Z,14.88
2023-03-21T19:46:25.566Z,19.45
2023-03-21T19:48:57.572Z,16.42
2023-03-21T19:51:29.125Z,16.15
2023-03-21T19:54:03.624Z,14.70
2023-03-21T19:56:31.806Z,15.90
2023-03-21T19:59:00.270Z,14.10
2023-03-21T20:01:28.041Z,13.48
2023-03-21T20:03:55.912Z,13.65
2023-03-21T20:06:24.398Z,13.85
2023-03-21T20:11:40.320Z,14.57
2023-03-21T20:14:07.642Z,13.13
2023-03-21T20:16:37.090Z,14.43
2023-03-21T20:19:06.433Z,14.77
2023-03-21T20:21:44.367Z,14.35
2023-03-21T20:24:19.608Z,15.27
2023-03-21T20:26:47.269Z,15.35
2023-03-21T20:32:02.028Z,15.75
2023-03-21T20:34:30.548Z,15.68
2023-03-21T20:36:58.830Z,15.35
2023-03-21T20:39:28.634Z,15.63
2023-03-21T20:41:59.398Z,14.32
2023-03-21T20:44:57.288Z,14.50
2023-03-21T20:47:15.931Z,14.35
2023-03-21T20:49:43.767Z,14.90
2023-03-21T20:54:58.954Z,15.68
2023-03-21T20:57:28.333Z,16.33
2023-03-21T20:59:56.544Z,14.50
2023-03-21T21:02:24.906Z,16.15
2023-03-21T21:05:23.666Z,17.50
2023-03-21T21:07:43.154Z,16.48
2023-03-21T21:10:14.260Z,15.52
2023-03-21T21:12:45.448Z,17.80
2023-03-21T21:15:17.006Z,16.60
2023-03-21T21:20:33.900Z,17.45
2023-03-21T21:23:01.532Z,15.05
2023-03-21T21:25:32.103Z,18.77
2023-03-21T21:27:59.590Z,17.40
2023-03-21T21:30:27.147Z,15.40
2023-03-21T21:32:54.481Z,16.40
2023-03-21T21:35:22.630Z,16.13
2023-03-21T21:37:51.564Z,16.13
2023-03-21T21:40:20.904Z,16.25
2023-03-21T21:42:48.530Z,17.30
2023-03-21T21:45:16.352Z,16.15
2023-03-21T21:47:46.726Z,17.00
2023-03-21T21:50:14.614Z,19.15
2023-03-21T21:52:44.053Z,16.35
2023-03-21T21:55:13.820Z,17.10
2023-03-21T21:57:41.313Z,17.15
2023-03-21T22:00:14.347Z,14.77
2023-03-21T22:02:42.126Z,14.75
2023-03-21T22:05:10.841Z,16.67
2023-03-21T22:07:39.356Z,17.27
2023-03-21T22:10:09.779Z,16.52
2023-03-21T22:12:37.380Z,15.75
2023-03-21T22:15:07.802Z,16.02
2023-03-21T22:17:36.701Z,15.75
2023-03-21T22:20:07.121Z,16.13
2023-03-21T22:22:35.359Z,16.77
2023-03-21T22:25:04.271Z,16.20
2023-03-21T22:27:32.005Z,18.73
2023-03-21T22:30:05.026Z,22.27
2023-03-21T22:32:35.475Z,24.25
2023-03-21T22:35:03.559Z,17.92
2023-03-21T22:37:31.921Z,23.70
2023-03-21T22:39:59.430Z,21.23
2023-03-21T22:42:27.535Z,17.02
2023-03-21T22:44:55.130Z,22.65
2023-03-21T22:47:22.680Z,38.13
2023-03-21T22:49:50.293Z,29.45
2023-03-21T22:52:17.894Z,28.45
2023-03-21T22:54:46.307Z,21.35
2023-03-21T22:57:16.796Z,17.23
2023-03-21T22:59:44.436Z,17.45
2023-03-21T23:02:11.611Z,30.00
2023-03-21T23:04:39.053Z,17.77
2023-03-21T23:07:06.460Z,14.68
2023-03-21T23:09:34.332Z,14.95
2023-03-21T23:12:01.458Z,14.63
2023-03-21T23:14:28.714Z,13.52
2023-03-21T23:17:00.426Z,13.95
2023-03-21T23:19:29.197Z,12.77
2023-03-21T23:21:57.094Z,12.40
2023-03-21T23:24:24.939Z,13.68
2023-03-21T23:26:52.239Z,13.70
2023-03-21T23:29:19.570Z,14.98
2023-03-21T23:31:47.206Z,14.20
2023-03-21T23:34:14.657Z,14.60
2023-03-21T23:36:42.212Z,12.65
2023-03-21T23:39:10.030Z,13.90
2023-03-21T23:41:37.329Z,13.30
2023-03-21T23:44:05.171Z,13.05
2023-03-21T23:46:32.341Z,12.63
2023-03-21T23:48:59.647Z,11.85
2023-03-21T23:51:27.082Z,13.00
2023-03-21T23:53:56.795Z,12.68
2023-03-21T23:56:26.148Z,11.90
2023-03-21T23:58:53.576Z,11.10
